Strona główna
Zdjęcia satelitarne 10-dni prognozyKlimatMeteorologia morska Cyklony Błyskawica LotniskoFAQ Gazetka O
Pogoda : Europa Afryka Ameryka Północna Ameryka Południowa Azja Australia-Oceania Inny
Języki Kontakt

Albert, Francja

Szerokość geograficzna: 49-58-21N, Długość geograficzna: 002-41-29E, wysokość: 111 m


METAR: LFAQ 311730Z AUTO 27025G36KT 9999 FEW039 09/03 Q1015
TAF: LFAQ 311400Z 3115/3124 27025G35KT 9999 BKN030

czas: 19:59 (17:59 UTC)

Aktualna obserwacja pogody

Raport powstał 29 minut temu, godzina 17:30 UTC
Wiatr 25 kt od zachód w porywach dochodzący do 36 kt
Temperatura 9°C
Wilgotność 66%
Ciśnienie 1015 hPa
Widzialność 10 km lub więcej
Mało chmury na wysokości 3900 ft

Jednostka miary

Prognoza

Raport powstał 3 godziny i 59 minut temu, godzina 14:00 UTC
Prognoza ważna od 31 godzina 15 UTC do 31 godzina 24 UTC
Wiatr 25 kt od zachód w porywach dochodzący do 35 kt
Widzialność 10 km lub więcej
Przerywane chmury na wysokości 3000 ft
Informacje na tej stronie internetowej podlegają klauzuli o wyłączeniu odpowiedzialności
Pogoda : Europa Afryka Ameryka Północna Ameryka Południowa Azja Australia-Oceania Inny
Zdjęcia satelitarne 10-dni prognozyKlimatMeteorologia morska Cyklony Błyskawica LotniskoFAQ Języki Kontakt Gazetka O